Flugplatz Leuzendorf Segelflug (UL)

Hier findest Du alle Informationen zum Flugplatz Leuzendorf Segelflug (UL).

Informationen für Piloten zum Flugplatz Leuzendorf Segelflug

Hier findest Du alle relevanten Informationen, die Du als Pilot benötigst, um Leuzendorf Segelflug anzufliegen.

Flugplatz: Leuzendorf Segelflug ICAO-Code: UL Flugplatz
Frequenz Turm: 123.500 Mhz GAFOR Gebiet: 55
Frequenz Ground: 123.350 Mhz Mogas: nein
Platzrunde: S 2000 ft Landegebühr: -
Platzhöhe: Sunrise: 04:11 Uhr UTC
Pisten: 08/26 - 870 m x 25 m, GRAS Sunset: 18:24 Uhr UTC

Flugwetter am Flugplatz Leuzendorf Segelflug

Die METAR Information stammen aus EDDN (74.18 km entfernt).

METAR Code:
2021/04/19 06:50
EDDN 190650Z 10003KT 070V150 7000 -RA FEW004 SCT018 BKN031 07/06 Q1018 NOSIG

Flugschulen am Flugplatz Leuzendorf Segelflug

Am Flugplatz Leuzendorf Segelflug gibt es leider keine Flugschule.

Benachbarte Flugplätze und Flugschulen

Es gibt 24 weitere Flugplätze in einem Umkreis von 50 km um den Flugplatz Leuzendorf Segelflug.

Jetzt anmelden

Passwort vergessen

Umfrage Archiv

Seid Ihr aufgrund von Corona im Jahr 2020 mehr oder weniger geflogen als im Jahr zuvor?

weniger
53.8 %
gleich viel
29 %
mehr
17.2 %
Stimmen: 186 | Diskussion
Anzeige: Roland Aircraft
Statistik Alle Mitglieder

Aktuell sind 24 Besucher online.

Anzeige: VFR Sprechfunk Simulator


Anzeige: Pocket FMS